createdAt,value
2019-02-05T00:00:09.991Z,1015.70
2019-02-05T00:01:09.988Z,1015.72
2019-02-05T00:02:09.969Z,1015.73
2019-02-05T00:03:09.976Z,1015.75
2019-02-05T00:04:09.953Z,1015.72
2019-02-05T00:05:09.963Z,1015.78
2019-02-05T00:06:09.938Z,1015.78
2019-02-05T00:07:09.931Z,1015.72
2019-02-05T00:08:09.901Z,1015.74
2019-02-05T00:09:09.893Z,1015.69
2019-02-05T00:10:09.900Z,1015.70
2019-02-05T00:11:09.883Z,1015.71
2019-02-05T00:12:09.859Z,1015.72
2019-02-05T00:13:09.852Z,1015.73
2019-02-05T00:14:09.837Z,1015.71
2019-02-05T00:15:09.831Z,1015.71
2019-02-05T00:16:09.838Z,1015.72
2019-02-05T00:17:09.804Z,1015.69
2019-02-05T00:18:09.803Z,1015.65
2019-02-05T00:19:09.798Z,1015.70
2019-02-05T00:20:09.773Z,1015.65
2019-02-05T00:21:09.851Z,1015.69
2019-02-05T00:22:09.748Z,1015.70
2019-02-05T00:23:09.740Z,1015.71
2019-02-05T00:24:09.727Z,1015.76
2019-02-05T00:25:09.736Z,1015.79
2019-02-05T00:26:09.742Z,1015.84
2019-02-05T00:27:09.693Z,1015.79
2019-02-05T00:28:09.692Z,1015.84
2019-02-05T00:29:09.675Z,1015.84
2019-02-05T00:30:09.660Z,1015.83
2019-02-05T00:31:09.666Z,1015.80
2019-02-05T00:32:09.638Z,1015.85
2019-02-05T00:33:09.745Z,1015.86
2019-02-05T00:34:09.619Z,1015.78
2019-02-05T00:35:09.610Z,1015.80
2019-02-05T00:36:09.629Z,1015.80
2019-02-05T00:37:09.585Z,1015.81
2019-02-05T00:38:09.575Z,1015.89
2019-02-05T00:39:09.566Z,1015.86
2019-02-05T00:40:09.552Z,1015.86
2019-02-05T00:41:09.573Z,1015.80
2019-02-05T00:42:09.536Z,1015.83
2019-02-05T00:43:09.520Z,1015.80
2019-02-05T00:44:09.507Z,1015.76
2019-02-05T00:45:09.501Z,1015.78
2019-02-05T00:46:09.492Z,1015.83
2019-02-05T00:47:09.490Z,1015.87
2019-02-05T00:48:09.473Z,1015.91
2019-02-05T00:49:09.476Z,1015.98
2019-02-05T00:50:09.444Z,1015.96
2019-02-05T00:51:09.448Z,1015.96
2019-02-05T00:52:09.433Z,1016.01
2019-02-05T00:53:09.421Z,1015.95
2019-02-05T00:54:09.397Z,1016.02
2019-02-05T00:55:09.391Z,1016.04
2019-02-05T00:56:17.299Z,1016.02
2019-02-05T00:57:10.395Z,1016.05
2019-02-05T00:58:09.352Z,1016.02
2019-02-05T00:59:09.365Z,1016.07
2019-02-05T01:00:09.334Z,1016.02
2019-02-05T01:01:09.326Z,1016.01
2019-02-05T01:02:09.323Z,1015.98
2019-02-05T01:03:09.298Z,1016.00
2019-02-05T01:04:09.290Z,1015.97
2019-02-05T01:05:09.275Z,1016.02
2019-02-05T01:06:09.265Z,1016.01
2019-02-05T01:07:09.272Z,1016.03
2019-02-05T01:08:09.248Z,1015.95
2019-02-05T01:09:09.237Z,1015.93
2019-02-05T01:10:09.220Z,1015.95
2019-02-05T01:11:09.212Z,1016.01
2019-02-05T01:12:09.237Z,1015.99
2019-02-05T01:13:09.188Z,1016.03
2019-02-05T01:14:09.177Z,1016.05
2019-02-05T01:15:09.169Z,1016.02
2019-02-05T01:16:09.171Z,1016.01
2019-02-05T01:17:09.163Z,1016.02
2019-02-05T01:18:09.151Z,1016.03
2019-02-05T01:19:09.120Z,1016.06
2019-02-05T01:20:09.109Z,1016.05
2019-02-05T01:21:09.100Z,1016.13
2019-02-05T01:22:09.120Z,1016.10
2019-02-05T01:23:09.079Z,1016.12
2019-02-05T01:24:09.069Z,1016.10
2019-02-05T01:25:09.095Z,1016.11
2019-02-05T01:26:09.049Z,1016.11
2019-02-05T01:27:09.047Z,1016.13
2019-02-05T01:28:09.028Z,1016.13
2019-02-05T01:29:09.012Z,1016.15
2019-02-05T01:30:09.002Z,1016.13
2019-02-05T01:31:08.991Z,1016.15
2019-02-05T01:32:08.992Z,1016.18
2019-02-05T01:33:08.986Z,1016.20
2019-02-05T01:34:08.960Z,1016.24
2019-02-05T01:35:08.965Z,1016.24
2019-02-05T01:36:08.934Z,1016.23
2019-02-05T01:37:08.937Z,1016.26
2019-02-05T01:38:08.921Z,1016.25
2019-02-05T01:39:08.904Z,1016.29
2019-02-05T01:40:08.893Z,1016.28
2019-02-05T01:41:08.885Z,1016.30
2019-02-05T01:42:08.885Z,1016.33
2019-02-05T01:43:08.887Z,1016.26
2019-02-05T01:44:08.848Z,1016.22
2019-02-05T01:45:08.854Z,1016.21
2019-02-05T01:46:08.825Z,1016.22
2019-02-05T01:47:08.816Z,1016.19
2019-02-05T01:48:08.815Z,1016.16
2019-02-05T01:49:08.803Z,1016.16
2019-02-05T01:50:08.797Z,1016.15
2019-02-05T01:51:08.777Z,1016.13
2019-02-05T01:52:08.781Z,1016.13
2019-02-05T01:53:08.760Z,1016.10
2019-02-05T01:54:08.739Z,1016.17
2019-02-05T01:55:08.727Z,1016.17
2019-02-05T01:56:08.729Z,1016.19
2019-02-05T01:57:08.710Z,1016.20
2019-02-05T01:58:08.724Z,1016.19
2019-02-05T01:59:08.695Z,1016.18
2019-02-05T02:00:08.678Z,1016.20
2019-02-05T02:01:08.669Z,1016.22
2019-02-05T02:02:08.656Z,1016.22
2019-02-05T02:03:08.650Z,1016.23
2019-02-05T02:04:08.630Z,1016.21
2019-02-05T02:05:08.617Z,1016.16
2019-02-05T02:06:08.605Z,1016.19
2019-02-05T02:07:08.608Z,1016.14
2019-02-05T02:08:08.632Z,1016.13
2019-02-05T02:09:08.577Z,1016.17
2019-02-05T02:10:08.567Z,1016.22
2019-02-05T02:11:08.556Z,1016.24
2019-02-05T02:12:08.541Z,1016.29
2019-02-05T02:13:08.542Z,1016.29
2019-02-05T02:14:08.516Z,1016.31
2019-02-05T02:15:08.507Z,1016.28
2019-02-05T02:16:08.499Z,1016.28
2019-02-05T02:17:08.494Z,1016.31
2019-02-05T02:18:08.486Z,1016.28
2019-02-05T02:19:08.487Z,1016.29
2019-02-05T02:20:08.457Z,1016.22
2019-02-05T02:21:08.446Z,1016.23
2019-02-05T02:22:08.435Z,1016.19
2019-02-05T02:23:08.430Z,1016.21
2019-02-05T02:24:08.424Z,1016.25
2019-02-05T02:25:08.403Z,1016.28
2019-02-05T02:26:08.388Z,1016.25
2019-02-05T02:27:08.382Z,1016.26
2019-02-05T02:28:08.381Z,1016.30
2019-02-05T02:29:08.365Z,1016.29
2019-02-05T02:30:08.364Z,1016.30
2019-02-05T02:31:08.356Z,1016.28
2019-02-05T02:32:08.319Z,1016.22
2019-02-05T02:33:08.330Z,1016.14
2019-02-05T02:34:08.307Z,1016.21
2019-02-05T02:35:08.292Z,1016.19
2019-02-05T02:36:08.275Z,1016.17
2019-02-05T02:37:08.266Z,1016.17
2019-02-05T02:38:08.276Z,1016.17
2019-02-05T02:39:08.245Z,1016.16
2019-02-05T02:40:08.239Z,1016.20
2019-02-05T02:41:08.238Z,1016.14
2019-02-05T02:42:08.212Z,1016.21
2019-02-05T02:43:08.215Z,1016.18
2019-02-05T02:44:08.191Z,1016.18
2019-02-05T02:45:08.177Z,1016.20
2019-02-05T02:46:08.174Z,1016.18
2019-02-05T02:47:08.155Z,1016.15
2019-02-05T02:48:08.157Z,1016.14
2019-02-05T02:49:08.145Z,1016.16
2019-02-05T02:50:08.124Z,1016.18
2019-02-05T02:51:08.136Z,1016.18
2019-02-05T02:52:08.110Z,1016.17
2019-02-05T02:53:08.112Z,1016.16
2019-02-05T02:54:08.085Z,1016.14
2019-02-05T02:55:08.070Z,1016.13
2019-02-05T02:56:08.058Z,1016.17
2019-02-05T02:57:08.048Z,1016.11
2019-02-05T02:58:08.050Z,1016.16
2019-02-05T02:59:08.025Z,1016.19
2019-02-05T03:00:08.016Z,1016.16
2019-02-05T03:01:08.009Z,1016.16
2019-02-05T03:02:07.991Z,1016.23
2019-02-05T03:03:07.980Z,1016.20
2019-02-05T03:04:07.984Z,1016.19
2019-02-05T03:05:07.959Z,1016.17
2019-02-05T03:06:07.953Z,1016.20
2019-02-05T03:07:07.949Z,1016.15
2019-02-05T03:08:07.932Z,1016.20
2019-02-05T03:09:07.935Z,1016.17
2019-02-05T03:10:07.903Z,1016.25
2019-02-05T03:11:07.891Z,1016.23
2019-02-05T03:12:07.883Z,1016.30
2019-02-05T03:13:07.875Z,1016.28
2019-02-05T03:14:07.873Z,1016.37
2019-02-05T03:15:07.854Z,1016.34
2019-02-05T03:16:07.929Z,1016.41
2019-02-05T03:17:07.836Z,1016.47
2019-02-05T03:18:07.817Z,1016.47
2019-02-05T03:19:07.816Z,1016.44
2019-02-05T03:20:07.794Z,1016.48
2019-02-05T03:21:07.780Z,1016.48
2019-02-05T03:22:07.777Z,1016.55
2019-02-05T03:23:07.764Z,1016.58
2019-02-05T03:24:07.762Z,1016.49
2019-02-05T03:25:07.741Z,1016.50
2019-02-05T03:26:07.731Z,1016.50
2019-02-05T03:27:17.161Z,1016.43
2019-02-05T03:28:08.705Z,1016.33
2019-02-05T03:29:07.770Z,1016.33
2019-02-05T03:30:07.690Z,1016.31
2019-02-05T03:31:07.682Z,1016.33
2019-02-05T03:32:07.700Z,1016.36
2019-02-05T03:33:07.655Z,1016.38
2019-02-05T03:34:07.652Z,1016.45
2019-02-05T03:35:07.629Z,1016.40
2019-02-05T03:36:07.620Z,1016.40
2019-02-05T03:37:07.608Z,1016.40
2019-02-05T03:38:07.596Z,1016.41
2019-02-05T03:39:07.603Z,1016.41
2019-02-05T03:40:07.591Z,1016.43
2019-02-05T03:41:07.564Z,1016.42
2019-02-05T03:42:07.550Z,1016.44
2019-02-05T03:43:07.557Z,1016.39
2019-02-05T03:44:07.555Z,1016.39
2019-02-05T03:45:07.522Z,1016.40
2019-02-05T03:46:07.513Z,1016.37
2019-02-05T03:47:07.496Z,1016.39
2019-02-05T03:48:07.490Z,1016.27
2019-02-05T03:49:07.490Z,1016.26
2019-02-05T03:50:07.493Z,1016.31
2019-02-05T03:51:07.461Z,1016.29
2019-02-05T03:52:07.447Z,1016.28
2019-02-05T03:53:07.438Z,1016.25
2019-02-05T03:54:07.523Z,1016.25
2019-02-05T03:55:07.435Z,1016.27
2019-02-05T03:56:07.402Z,1016.30
2019-02-05T03:57:07.391Z,1016.25
2019-02-05T03:58:07.378Z,1016.26
2019-02-05T03:59:07.377Z,1016.25
2019-02-05T04:00:07.370Z,1016.25
2019-02-05T04:01:07.351Z,1016.25
2019-02-05T04:02:07.332Z,1016.23
2019-02-05T04:03:07.367Z,1016.26
2019-02-05T04:04:07.336Z,1016.31
2019-02-05T04:05:07.298Z,1016.29
2019-02-05T04:06:07.293Z,1016.34
2019-02-05T04:07:07.281Z,1016.33
2019-02-05T04:08:07.271Z,1016.37
2019-02-05T04:09:07.277Z,1016.34
2019-02-05T04:10:07.260Z,1016.32
2019-02-05T04:11:07.232Z,1016.33
2019-02-05T04:12:07.262Z,1016.31
2019-02-05T04:13:07.235Z,1016.29
2019-02-05T04:14:07.303Z,1016.31
2019-02-05T04:15:07.188Z,1016.27
2019-02-05T04:16:07.182Z,1016.24
2019-02-05T04:17:07.174Z,1016.28
2019-02-05T04:18:07.159Z,1016.30
2019-02-05T04:19:07.153Z,1016.30
2019-02-05T04:20:07.131Z,1016.36
2019-02-05T04:21:07.123Z,1016.35
2019-02-05T04:22:07.112Z,1016.33
2019-02-05T04:23:07.114Z,1016.31
2019-02-05T04:24:07.100Z,1016.30
2019-02-05T04:25:07.086Z,1016.32
2019-02-05T04:26:07.072Z,1016.31
2019-02-05T04:27:07.058Z,1016.33
2019-02-05T04:28:07.050Z,1016.28
2019-02-05T04:29:07.104Z,1016.27
2019-02-05T04:30:07.025Z,1016.27
2019-02-05T04:31:07.019Z,1016.27
2019-02-05T04:32:07.004Z,1016.31
2019-02-05T04:33:06.989Z,1016.25
2019-02-05T04:34:06.996Z,1016.29
2019-02-05T04:35:06.993Z,1016.24
2019-02-05T04:36:06.976Z,1016.21
2019-02-05T04:37:06.950Z,1016.22
2019-02-05T04:38:06.942Z,1016.22
2019-02-05T04:39:06.932Z,1016.21
2019-02-05T04:40:06.931Z,1016.21
2019-02-05T04:41:06.905Z,1016.17
2019-02-05T04:42:06.891Z,1016.16
2019-02-05T04:43:06.886Z,1016.18
2019-02-05T04:44:06.876Z,1016.15
2019-02-05T04:45:06.874Z,1016.16
2019-02-05T04:46:06.850Z,1016.18
2019-02-05T04:47:06.837Z,1016.21
2019-02-05T04:48:06.828Z,1016.22
2019-02-05T04:49:06.819Z,1016.20
2019-02-05T04:50:06.817Z,1016.18
2019-02-05T04:51:06.804Z,1016.25
2019-02-05T04:52:06.788Z,1016.25
2019-02-05T04:53:06.776Z,1016.27
2019-02-05T04:54:06.761Z,1016.23
2019-02-05T04:55:06.763Z,1016.25
2019-02-05T04:56:06.738Z,1016.25
2019-02-05T04:57:06.733Z,1016.22
2019-02-05T04:58:06.726Z,1016.24
2019-02-05T04:59:06.717Z,1016.27
2019-02-05T05:00:06.705Z,1016.22
2019-02-05T05:01:06.686Z,1016.25
2019-02-05T05:02:06.674Z,1016.27
2019-02-05T05:03:06.662Z,1016.25
2019-02-05T05:04:06.657Z,1016.28
2019-02-05T05:05:06.663Z,1016.27
2019-02-05T05:06:06.645Z,1016.24
2019-02-05T05:07:06.618Z,1016.23
2019-02-05T05:08:06.607Z,1016.23
2019-02-05T05:09:06.604Z,1016.26
2019-02-05T05:10:06.597Z,1016.24
2019-02-05T05:11:06.597Z,1016.23
2019-02-05T05:12:06.564Z,1016.27
2019-02-05T05:13:06.554Z,1016.21
2019-02-05T05:14:06.558Z,1016.25
2019-02-05T05:15:06.541Z,1016.28
2019-02-05T05:16:06.522Z,1016.32
2019-02-05T05:17:06.513Z,1016.28
2019-02-05T05:18:06.499Z,1016.34
2019-02-05T05:19:06.496Z,1016.34
2019-02-05T05:20:06.503Z,1016.38
2019-02-05T05:21:06.467Z,1016.40
2019-02-05T05:22:06.472Z,1016.42
2019-02-05T05:23:06.446Z,1016.47
2019-02-05T05:24:06.442Z,1016.51
2019-02-05T05:25:06.431Z,1016.48
2019-02-05T05:26:06.437Z,1016.55
2019-02-05T05:27:06.401Z,1016.52
2019-02-05T05:28:10.194Z,1016.61
2019-02-05T05:29:06.400Z,1016.58
2019-02-05T05:30:06.365Z,1016.60
2019-02-05T05:31:06.374Z,1016.60
2019-02-05T05:32:06.343Z,1016.59
2019-02-05T05:33:06.333Z,1016.59
2019-02-05T05:34:06.349Z,1016.63
2019-02-05T05:35:06.314Z,1016.65
2019-02-05T05:36:06.308Z,1016.65
2019-02-05T05:37:06.296Z,1016.64
2019-02-05T05:38:06.275Z,1016.68
2019-02-05T05:39:06.271Z,1016.67
2019-02-05T05:40:06.260Z,1016.69
2019-02-05T05:41:06.256Z,1016.64
2019-02-05T05:42:06.235Z,1016.59
2019-02-05T05:43:06.226Z,1016.56
2019-02-05T05:44:09.380Z,1016.58
2019-02-05T05:45:06.212Z,1016.61
2019-02-05T05:46:06.199Z,1016.62
2019-02-05T05:47:06.183Z,1016.57
2019-02-05T05:48:06.171Z,1016.60
2019-02-05T05:49:06.159Z,1016.62
2019-02-05T05:50:06.196Z,1016.59
2019-02-05T05:51:06.145Z,1016.59
2019-02-05T05:52:06.138Z,1016.57
2019-02-05T05:53:06.121Z,1016.66
2019-02-05T05:54:06.100Z,1016.68
2019-02-05T05:55:06.122Z,1016.68
2019-02-05T05:56:06.106Z,1016.67
2019-02-05T05:57:06.076Z,1016.71
2019-02-05T05:58:06.245Z,1016.68
2019-02-05T05:59:06.057Z,1016.69
2019-02-05T06:00:06.039Z,1016.65
2019-02-05T06:01:06.037Z,1016.66
2019-02-05T06:02:06.013Z,1016.67
2019-02-05T06:03:06.020Z,1016.66
2019-02-05T06:04:06.003Z,1016.67
2019-02-05T06:05:05.990Z,1016.66
2019-02-05T06:06:06.005Z,1016.67
2019-02-05T06:07:05.967Z,1016.65
2019-02-05T06:08:05.957Z,1016.67
2019-02-05T06:09:05.938Z,1016.66
2019-02-05T06:10:07.124Z,1016.67
2019-02-05T06:11:05.934Z,1016.71
2019-02-05T06:12:05.902Z,1016.69
2019-02-05T06:13:05.904Z,1016.76
2019-02-05T06:14:05.881Z,1016.72
2019-02-05T06:15:05.966Z,1016.72
2019-02-05T06:16:05.890Z,1016.81
2019-02-05T06:17:05.848Z,1016.82
2019-02-05T06:18:05.861Z,1016.81
2019-02-05T06:19:05.835Z,1016.84
2019-02-05T06:20:05.819Z,1016.86
2019-02-05T06:21:05.821Z,1016.85
2019-02-05T06:22:05.806Z,1016.86
2019-02-05T06:23:05.783Z,1016.92
2019-02-05T06:24:05.784Z,1016.94
2019-02-05T06:25:05.784Z,1016.96
2019-02-05T06:26:05.770Z,1016.95
2019-02-05T06:27:05.740Z,1017.03
2019-02-05T06:28:05.730Z,1017.04
2019-02-05T06:29:05.719Z,1017.01
2019-02-05T06:30:05.707Z,1017.02
2019-02-05T06:31:05.719Z,1017.03
2019-02-05T06:32:05.684Z,1017.06
2019-02-05T06:33:05.679Z,1017.07
2019-02-05T06:34:05.663Z,1017.11
2019-02-05T06:35:05.652Z,1017.10
2019-02-05T06:36:05.652Z,1017.12
2019-02-05T06:37:05.634Z,1017.07
2019-02-05T06:38:05.618Z,1017.12
2019-02-05T06:39:05.613Z,1017.11
2019-02-05T06:40:05.599Z,1017.08
2019-02-05T06:41:05.607Z,1017.07
2019-02-05T06:42:05.586Z,1017.06
2019-02-05T06:43:05.567Z,1017.07
2019-02-05T06:44:05.551Z,1017.09
2019-02-05T06:45:05.540Z,1017.06
2019-02-05T06:46:05.540Z,1017.10
2019-02-05T06:47:05.531Z,1017.13
2019-02-05T06:48:05.514Z,1017.07
2019-02-05T06:49:05.498Z,1017.08
2019-02-05T06:50:05.486Z,1017.09
2019-02-05T06:51:05.476Z,1017.08
2019-02-05T06:52:05.478Z,1017.11
2019-02-05T06:53:05.455Z,1017.10
2019-02-05T06:54:05.455Z,1017.12
2019-02-05T06:55:05.435Z,1017.12
2019-02-05T06:56:05.428Z,1017.11
2019-02-05T06:57:05.421Z,1017.09
2019-02-05T06:58:05.420Z,1016.99
2019-02-05T06:59:05.388Z,1017.04
2019-02-05T07:00:05.380Z,1017.00
2019-02-05T07:01:05.368Z,1017.05
2019-02-05T07:02:05.373Z,1017.09
2019-02-05T07:03:05.355Z,1017.07
2019-02-05T07:04:05.346Z,1017.07
2019-02-05T07:05:05.339Z,1017.12
2019-02-05T07:06:05.310Z,1017.14
2019-02-05T07:07:05.310Z,1017.14
2019-02-05T07:08:05.290Z,1017.13
2019-02-05T07:09:05.286Z,1017.16
2019-02-05T07:10:05.270Z,1017.24
2019-02-05T07:11:05.254Z,1017.22
2019-02-05T07:12:05.262Z,1017.29
2019-02-05T07:13:05.246Z,1017.29
2019-02-05T07:14:05.223Z,1017.33
2019-02-05T07:15:05.212Z,1017.27
2019-02-05T07:16:05.211Z,1017.32
2019-02-05T07:17:05.215Z,1017.30
2019-02-05T07:18:05.178Z,1017.31
2019-02-05T07:19:05.169Z,1017.34
2019-02-05T07:20:05.160Z,1017.32
2019-02-05T07:21:05.145Z,1017.36
2019-02-05T07:22:05.159Z,1017.38
2019-02-05T07:23:05.145Z,1017.45
2019-02-05T07:24:05.115Z,1017.45
2019-02-05T07:25:05.104Z,1017.47
2019-02-05T07:26:05.098Z,1017.50
2019-02-05T07:27:05.115Z,1017.49
2019-02-05T07:28:05.072Z,1017.53
2019-02-05T07:29:05.058Z,1017.51
2019-02-05T07:30:05.053Z,1017.50
2019-02-05T07:31:05.044Z,1017.52
2019-02-05T07:32:05.040Z,1017.57
2019-02-05T07:33:05.015Z,1017.59
2019-02-05T07:34:05.006Z,1017.59
2019-02-05T07:35:04.997Z,1017.59
2019-02-05T07:36:04.985Z,1017.59
2019-02-05T07:37:05.014Z,1017.60
2019-02-05T07:38:04.966Z,1017.58
2019-02-05T07:39:04.948Z,1017.60
2019-02-05T07:40:04.943Z,1017.62
2019-02-05T07:41:04.929Z,1017.57
2019-02-05T07:42:04.914Z,1017.65
2019-02-05T07:43:04.917Z,1017.66
2019-02-05T07:44:04.897Z,1017.60
2019-02-05T07:45:04.889Z,1017.66
2019-02-05T07:46:04.877Z,1017.69
2019-02-05T07:47:04.898Z,1017.69
2019-02-05T07:48:04.861Z,1017.69
2019-02-05T07:49:04.845Z,1017.63
2019-02-05T07:50:04.842Z,1017.64
2019-02-05T07:51:04.825Z,1017.69
2019-02-05T07:52:04.809Z,1017.67
2019-02-05T07:53:04.822Z,1017.71
2019-02-05T07:54:04.783Z,1017.74
2019-02-05T07:55:04.779Z,1017.76
2019-02-05T07:56:04.762Z,1017.76
2019-02-05T07:57:04.751Z,1017.75
2019-02-05T07:58:04.752Z,1017.78
2019-02-05T07:59:10.314Z,1017.80
2019-02-05T08:00:05.718Z,1017.79
2019-02-05T08:01:04.824Z,1017.79
2019-02-05T08:02:04.695Z,1017.77
2019-02-05T08:03:04.703Z,1017.80
2019-02-05T08:04:04.683Z,1017.79
2019-02-05T08:05:04.663Z,1017.85
2019-02-05T08:06:04.676Z,1017.84
2019-02-05T08:07:07.523Z,1017.83
2019-02-05T08:08:04.639Z,1017.84
2019-02-05T08:09:04.623Z,1017.92
2019-02-05T08:10:04.608Z,1017.94
2019-02-05T08:11:04.598Z,1017.94
2019-02-05T08:12:04.585Z,1017.93
2019-02-05T08:13:04.603Z,1017.93
2019-02-05T08:14:06.194Z,1017.96
2019-02-05T08:15:04.555Z,1017.96
2019-02-05T08:16:04.544Z,1017.98
2019-02-05T08:17:04.532Z,1017.98
2019-02-05T08:18:04.531Z,1017.99
2019-02-05T08:19:04.511Z,1017.98
2019-02-05T08:20:04.506Z,1018.00
2019-02-05T08:21:04.493Z,1018.02
2019-02-05T08:22:04.478Z,1018.01
2019-02-05T08:23:04.498Z,1018.02
2019-02-05T08:24:04.518Z,1018.00
2019-02-05T08:25:04.454Z,1017.98
2019-02-05T08:26:04.448Z,1018.04
2019-02-05T08:27:04.422Z,1018.02
2019-02-05T08:28:04.424Z,1018.05
2019-02-05T08:29:04.399Z,1018.06
2019-02-05T08:30:04.388Z,1018.09
2019-02-05T08:31:04.382Z,1018.11
2019-02-05T08:32:04.370Z,1018.16
2019-02-05T08:33:04.373Z,1018.21
2019-02-05T08:34:04.346Z,1018.21
2019-02-05T08:35:04.342Z,1018.23
2019-02-05T08:36:04.345Z,1018.22
2019-02-05T08:37:04.312Z,1018.25
2019-02-05T08:38:04.326Z,1018.24
2019-02-05T08:39:04.288Z,1018.25
2019-02-05T08:40:04.294Z,1018.30
2019-02-05T08:41:04.273Z,1018.29
2019-02-05T08:42:04.268Z,1018.28
2019-02-05T08:43:04.251Z,1018.29
2019-02-05T08:44:04.249Z,1018.33
2019-02-05T08:45:04.226Z,1018.33
2019-02-05T08:46:04.213Z,1018.34
2019-02-05T08:47:04.205Z,1018.38
2019-02-05T08:48:04.191Z,1018.39
2019-02-05T08:49:04.190Z,1018.40
2019-02-05T08:50:04.169Z,1018.36
2019-02-05T08:51:04.161Z,1018.37
2019-02-05T08:52:04.148Z,1018.35
2019-02-05T08:53:04.137Z,1018.35
2019-02-05T08:54:04.142Z,1018.36
2019-02-05T08:55:04.120Z,1018.36
2019-02-05T08:56:04.111Z,1018.33
2019-02-05T08:57:04.092Z,1018.37
2019-02-05T08:58:04.082Z,1018.34
2019-02-05T08:59:04.107Z,1018.34
2019-02-05T09:00:04.058Z,1018.36
2019-02-05T09:01:04.049Z,1018.42
2019-02-05T09:02:04.038Z,1018.40
2019-02-05T09:03:04.036Z,1018.35
2019-02-05T09:04:04.029Z,1018.40
2019-02-05T09:05:04.004Z,1018.43
2019-02-05T09:06:03.996Z,1018.43
2019-02-05T09:07:03.983Z,1018.43
2019-02-05T09:08:03.969Z,1018.51
2019-02-05T09:09:03.990Z,1018.46
2019-02-05T09:10:03.950Z,1018.50
2019-02-05T09:11:03.939Z,1018.50
2019-02-05T09:12:03.941Z,1018.49
2019-02-05T09:13:03.915Z,1018.56
2019-02-05T09:14:10.895Z,1018.52
2019-02-05T09:15:04.893Z,1018.55
2019-02-05T09:16:03.894Z,1018.55
2019-02-05T09:17:03.875Z,1018.58
2019-02-05T09:18:03.862Z,1018.54
2019-02-05T09:19:03.864Z,1018.58
2019-02-05T09:20:03.842Z,1018.59
2019-02-05T09:21:03.833Z,1018.61
2019-02-05T09:22:03.828Z,1018.64
2019-02-05T09:23:03.815Z,1018.63
2019-02-05T09:24:03.804Z,1018.68
2019-02-05T09:25:03.789Z,1018.71
2019-02-05T09:26:03.775Z,1018.70
2019-02-05T09:27:03.910Z,1018.73
2019-02-05T09:28:03.752Z,1018.71
2019-02-05T09:29:03.789Z,1018.68
2019-02-05T09:30:03.729Z,1018.67
2019-02-05T09:31:03.724Z,1018.68
2019-02-05T09:32:03.723Z,1018.71
2019-02-05T09:33:03.701Z,1018.74
2019-02-05T09:34:03.690Z,1018.74
2019-02-05T09:35:03.696Z,1018.77
2019-02-05T09:36:03.663Z,1018.80
2019-02-05T09:37:03.653Z,1018.75
2019-02-05T09:38:03.679Z,1018.76
2019-02-05T09:39:03.630Z,1018.76
2019-02-05T09:40:03.632Z,1018.74
2019-02-05T09:41:03.608Z,1018.77
2019-02-05T09:42:03.596Z,1018.80
2019-02-05T09:43:03.588Z,1018.78
2019-02-05T09:44:03.604Z,1018.77
2019-02-05T09:45:03.587Z,1018.81
2019-02-05T09:46:03.561Z,1018.84
2019-02-05T09:47:03.543Z,1018.80
2019-02-05T09:48:03.532Z,1018.84
2019-02-05T09:49:03.520Z,1018.84
2019-02-05T09:50:03.527Z,1018.87
2019-02-05T09:51:03.507Z,1018.90
2019-02-05T09:52:03.487Z,1018.93
2019-02-05T09:53:03.478Z,1018.96
2019-02-05T09:54:03.469Z,1018.98
2019-02-05T09:55:03.488Z,1018.94
2019-02-05T09:56:03.447Z,1018.97
2019-02-05T09:57:03.439Z,1018.96
2019-02-05T09:58:03.421Z,1018.90
2019-02-05T09:59:03.415Z,1019.00
2019-02-05T10:00:03.413Z,1019.01
2019-02-05T10:01:03.407Z,1019.00
2019-02-05T10:02:03.380Z,1018.98
2019-02-05T10:03:03.369Z,1019.00
2019-02-05T10:04:03.355Z,1019.04
2019-02-05T10:05:03.357Z,1018.99
2019-02-05T10:06:03.361Z,1019.00
2019-02-05T10:07:03.331Z,1019.01
2019-02-05T10:08:03.318Z,1019.07
2019-02-05T10:09:03.303Z,1019.05
2019-02-05T10:10:03.336Z,1019.08
2019-02-05T10:11:03.281Z,1019.07
2019-02-05T10:12:03.267Z,1019.10
2019-02-05T10:13:03.258Z,1019.13
2019-02-05T10:14:03.251Z,1019.14
2019-02-05T10:15:03.234Z,1019.12
2019-02-05T10:16:03.235Z,1019.14
2019-02-05T10:17:03.213Z,1019.13
2019-02-05T10:18:03.218Z,1019.21
2019-02-05T10:19:03.193Z,1019.21
2019-02-05T10:20:03.192Z,1019.22
2019-02-05T10:21:03.181Z,1019.22
2019-02-05T10:22:03.156Z,1019.25
2019-02-05T10:23:03.146Z,1019.21
2019-02-05T10:24:03.139Z,1019.23
2019-02-05T10:25:03.127Z,1019.24
2019-02-05T10:26:03.127Z,1019.18
2019-02-05T10:27:03.112Z,1019.16
2019-02-05T10:28:03.092Z,1019.16
2019-02-05T10:29:03.090Z,1019.16
2019-02-05T10:30:03.080Z,1019.18
2019-02-05T10:31:03.078Z,1019.22
2019-02-05T10:32:03.053Z,1019.26
2019-02-05T10:33:03.043Z,1019.23
2019-02-05T10:34:03.027Z,1019.30
2019-02-05T10:35:03.015Z,1019.29
2019-02-05T10:36:03.020Z,1019.27
2019-02-05T10:37:03.003Z,1019.29
2019-02-05T10:38:02.982Z,1019.25
2019-02-05T10:39:02.974Z,1019.25
2019-02-05T10:40:02.965Z,1019.23
2019-02-05T10:41:02.980Z,1019.20
2019-02-05T10:42:02.941Z,1019.24
2019-02-05T10:43:02.942Z,1019.21
2019-02-05T10:44:02.917Z,1019.24
2019-02-05T10:45:02.907Z,1019.25
2019-02-05T10:46:02.914Z,1019.33
2019-02-05T10:47:02.885Z,1019.26
2019-02-05T10:48:02.882Z,1019.29
2019-02-05T10:49:03.419Z,1019.26
2019-02-05T10:50:02.853Z,1019.24
2019-02-05T10:51:02.853Z,1019.25
2019-02-05T10:52:02.838Z,1019.24
2019-02-05T10:53:02.817Z,1019.26
2019-02-05T10:54:02.814Z,1019.26
2019-02-05T10:55:02.805Z,1019.22
2019-02-05T10:56:02.807Z,1019.28
2019-02-05T10:57:02.789Z,1019.32
2019-02-05T10:58:02.763Z,1019.29
2019-02-05T10:59:02.751Z,1019.29
2019-02-05T11:00:08.948Z,1019.29
2019-02-05T11:01:03.738Z,1019.28
2019-02-05T11:02:02.719Z,1019.27
2019-02-05T11:03:02.709Z,1019.25
2019-02-05T11:04:02.724Z,1019.28
2019-02-05T11:05:02.718Z,1019.27
2019-02-05T11:06:02.701Z,1019.20
2019-02-05T11:07:02.665Z,1019.19
2019-02-05T11:08:02.663Z,1019.22
2019-02-05T11:09:02.640Z,1019.22
2019-02-05T11:10:02.632Z,1019.19
2019-02-05T11:11:02.630Z,1019.15
2019-02-05T11:12:02.613Z,1019.17
2019-02-05T11:13:02.597Z,1019.17
2019-02-05T11:14:02.595Z,1019.17
2019-02-05T11:15:02.574Z,1019.19
2019-02-05T11:16:02.578Z,1019.20
2019-02-05T11:17:02.553Z,1019.18
2019-02-05T11:18:02.543Z,1019.20
2019-02-05T11:19:02.537Z,1019.16
2019-02-05T11:20:02.521Z,1019.17
2019-02-05T11:21:04.337Z,1019.18
2019-02-05T11:22:02.504Z,1019.14
2019-02-05T11:23:02.491Z,1019.13
2019-02-05T11:24:02.583Z,1019.12
2019-02-05T11:25:02.471Z,1019.12
2019-02-05T11:26:02.465Z,1019.14
2019-02-05T11:27:02.475Z,1019.12
2019-02-05T11:28:02.445Z,1019.16
2019-02-05T11:29:02.421Z,1019.13
2019-02-05T11:30:02.412Z,1019.08
2019-02-05T11:31:02.401Z,1019.07
2019-02-05T11:32:02.401Z,1019.07
2019-02-05T11:33:02.378Z,1019.03
2019-02-05T11:34:02.364Z,1019.04
2019-02-05T11:35:02.356Z,1019.03
2019-02-05T11:36:02.346Z,1019.06
2019-02-05T11:37:02.366Z,1019.00
2019-02-05T11:38:02.326Z,1018.99
2019-02-05T11:39:02.314Z,1019.00
2019-02-05T11:40:02.301Z,1018.96
2019-02-05T11:41:02.290Z,1018.98
2019-02-05T11:42:02.291Z,1018.95
2019-02-05T11:43:02.271Z,1018.93
2019-02-05T11:44:02.268Z,1018.92
2019-02-05T11:45:02.254Z,1018.93
2019-02-05T11:46:02.234Z,1018.95
2019-02-05T11:47:10.240Z,1018.94
2019-02-05T11:48:09.226Z,1018.97
2019-02-05T11:49:09.217Z,1018.95
2019-02-05T11:50:02.210Z,1018.98
2019-02-05T11:51:09.191Z,1018.95
2019-02-05T11:52:09.895Z,1018.97
2019-02-05T11:53:09.172Z,1018.95
2019-02-05T11:54:02.145Z,1018.96
2019-02-05T11:55:02.145Z,1018.94
2019-02-05T11:56:02.124Z,1018.94
2019-02-05T11:57:02.124Z,1018.92
2019-02-05T11:58:02.111Z,1018.93
2019-02-05T11:59:02.091Z,1018.95
2019-02-05T12:00:02.104Z,1018.95
2019-02-05T12:01:02.070Z,1018.93
2019-02-05T12:02:02.068Z,1018.98
2019-02-05T12:03:02.048Z,1018.99
2019-02-05T12:04:02.044Z,1018.94
2019-02-05T12:05:02.032Z,1018.92